San Juan Capistrano, CA (92675)

8:45 PM PDT on August 03, 2015 (GMT -0700)
Ortega | | Change Station
CLOSE
Current Station
Personal Weather Station
Location: San Juan Capistrano, CA
Elevation: 185 ft
Nearby Weather Stations

Elev 185 ft 33.50 °N, 117.60 °W | Updated 8 minutes ago

Partly Cloudy
Partly Cloudy
73.0 °F
Feels Like 75 °F
N
0.0
Wind Variable Wind from South
Gusts 0.0 mph

Today
High -- | Low -- °F
--% Chance of Precip.
Yesterday
High -- | Low -- °F
Precip. -- in
6:04 AM 7:48 PM
Waning Gibbous, 81% visible
Pressure 29.87 in
Visibility 6.0 miles
Clouds Scattered Clouds 900 ft
Heat Index 75 °F
Dew Point 62 °F
Humidity 69%
Rainfall 0.00 in
Snow Depth Not available.
UV 0 out of 12
Pollen 4.20 out of 12
Air Quality Not available.
Flu Activity Not available.
SPECI KNXF 040342Z AUTO 30006KT 6SM BR SCT009 22/19 A2987 RMK AO2 T02170194 $

More Conditions Fewer Conditions

Pressure 29.87 in
Visibility 6.0 miles
Clouds Scattered Clouds 900 ft
Heat Index 75 °F
Dew Point 62 °F
Humidity 69%
Rainfall 0.00 in
Snow Depth Not available.
UV 0 out of 12
Pollen 4.20 out of 12
Air Quality Not available.
Flu Activity Not available.
SPECI KNXF 040342Z AUTO 30006KT 6SM BR SCT009 22/19 A2987 RMK AO2 T02170194 $

More Conditions Fewer Conditions

10-Day Weather Forecast

×

Almanac

Astronomy

Aug. 03, 2015 Rise Set
Actual Time
Civil Twilight
Nautical Twilight
Astronomical Twilight
Moon
Length of Visible Light
Length of Day
Tomorrow will be .
, % of the Moon is Illuminated

Today's Extremes

State Highs State Lows

Community

WunderPhotos

Upload Photos

1,843,847 photos uploaded!

WunderBlogs® & News

Nearby

Air Quality

  Air Quality AQ Index Pollutant
Not available.

Snow Depth

Station Depth Elevation

Earthquake Activity

City Distance Mag. Time & Date
Minimum magnitude displayed is 2.5.

Coastal Water Temperatures

Place Temperature

Stations

Nearby Weather Stations

Station Location Temp. Windchill Dew Point Humidity Wind Precip. Elev Updated Type